sensor_id;sensor_type;location;lat;lon;timestamp;temperature;humidity
5775;DHT22;2913;51.120;6.772;2023-03-19T00:00:17;12.40;99.90
5775;DHT22;2913;51.120;6.772;2023-03-19T00:02:45;12.40;99.90
5775;DHT22;2913;51.120;6.772;2023-03-19T00:05:17;12.40;99.90
5775;DHT22;2913;51.120;6.772;2023-03-19T00:07:44;12.40;99.90
5775;DHT22;2913;51.120;6.772;2023-03-19T00:10:10;12.50;99.90
5775;DHT22;2913;51.120;6.772;2023-03-19T00:12:36;12.50;99.90
5775;DHT22;2913;51.120;6.772;2023-03-19T00:15:02;12.40;99.90
5775;DHT22;2913;51.120;6.772;2023-03-19T00:17:27;12.40;99.90
5775;DHT22;2913;51.120;6.772;2023-03-19T00:19:55;12.40;99.90
5775;DHT22;2913;51.120;6.772;2023-03-19T00:22:23;12.30;99.90
5775;DHT22;2913;51.120;6.772;2023-03-19T00:24:51;12.20;99.90
5775;DHT22;2913;51.120;6.772;2023-03-19T00:27:20;12.20;99.90
5775;DHT22;2913;51.120;6.772;2023-03-19T00:29:45;12.20;99.90
5775;DHT22;2913;51.120;6.772;2023-03-19T00:32:11;12.10;99.90
5775;DHT22;2913;51.120;6.772;2023-03-19T00:34:37;12.10;99.90
5775;DHT22;2913;51.120;6.772;2023-03-19T00:37:02;12.00;99.90
5775;DHT22;2913;51.120;6.772;2023-03-19T00:39:30;11.90;99.90
5775;DHT22;2913;51.120;6.772;2023-03-19T00:41:59;11.80;99.90
5775;DHT22;2913;51.120;6.772;2023-03-19T00:44:24;11.70;99.90
5775;DHT22;2913;51.120;6.772;2023-03-19T00:46:52;11.70;99.90
5775;DHT22;2913;51.120;6.772;2023-03-19T00:49:17;11.70;99.90
5775;DHT22;2913;51.120;6.772;2023-03-19T00:51:43;11.60;99.90
5775;DHT22;2913;51.120;6.772;2023-03-19T00:54:12;11.70;99.90
5775;DHT22;2913;51.120;6.772;2023-03-19T00:56:40;11.70;99.90
5775;DHT22;2913;51.120;6.772;2023-03-19T00:59:06;11.70;99.90
5775;DHT22;2913;51.120;6.772;2023-03-19T01:01:32;11.70;99.90
5775;DHT22;2913;51.120;6.772;2023-03-19T01:04:00;11.60;99.90
5775;DHT22;2913;51.120;6.772;2023-03-19T01:06:28;11.50;99.90
5775;DHT22;2913;51.120;6.772;2023-03-19T01:08:56;11.50;99.90
5775;DHT22;2913;51.120;6.772;2023-03-19T01:11:21;11.50;99.90
5775;DHT22;2913;51.120;6.772;2023-03-19T01:13:49;11.40;99.90
5775;DHT22;2913;51.120;6.772;2023-03-19T01:16:17;11.30;99.90
5775;DHT22;2913;51.120;6.772;2023-03-19T01:18:45;11.20;99.90
5775;DHT22;2913;51.120;6.772;2023-03-19T01:21:13;11.20;99.90
5775;DHT22;2913;51.120;6.772;2023-03-19T01:23:41;11.10;99.90
5775;DHT22;2913;51.120;6.772;2023-03-19T01:26:06;11.10;99.90
5775;DHT22;2913;51.120;6.772;2023-03-19T01:28:35;11.00;99.90
5775;DHT22;2913;51.120;6.772;2023-03-19T01:31:05;10.80;99.90
5775;DHT22;2913;51.120;6.772;2023-03-19T01:33:31;10.70;99.90
5775;DHT22;2913;51.120;6.772;2023-03-19T01:36:02;10.80;99.90
5775;DHT22;2913;51.120;6.772;2023-03-19T01:38:28;10.80;99.90
5775;DHT22;2913;51.120;6.772;2023-03-19T01:40:54;10.80;99.90
5775;DHT22;2913;51.120;6.772;2023-03-19T01:43:29;10.80;99.90
5775;DHT22;2913;51.120;6.772;2023-03-19T01:45:59;10.80;99.90
5775;DHT22;2913;51.120;6.772;2023-03-19T01:48:47;10.70;99.90
5775;DHT22;2913;51.120;6.772;2023-03-19T01:51:16;10.60;99.90
5775;DHT22;2913;51.120;6.772;2023-03-19T01:53:50;10.60;99.90
5775;DHT22;2913;51.120;6.772;2023-03-19T01:56:23;10.60;99.90
5775;DHT22;2913;51.120;6.772;2023-03-19T01:58:54;10.60;99.90
5775;DHT22;2913;51.120;6.772;2023-03-19T02:01:21;10.60;99.90
5775;DHT22;2913;51.120;6.772;2023-03-19T02:03:50;10.60;99.90
5775;DHT22;2913;51.120;6.772;2023-03-19T02:06:21;10.60;99.90
5775;DHT22;2913;51.120;6.772;2023-03-19T02:08:48;10.60;99.90
5775;DHT22;2913;51.120;6.772;2023-03-19T02:11:17;10.70;99.90
5775;DHT22;2913;51.120;6.772;2023-03-19T02:13:43;10.70;99.90
5775;DHT22;2913;51.120;6.772;2023-03-19T02:16:09;10.70;99.90
5775;DHT22;2913;51.120;6.772;2023-03-19T02:18:35;10.60;99.90
5775;DHT22;2913;51.120;6.772;2023-03-19T02:21:08;10.60;99.90
5775;DHT22;2913;51.120;6.772;2023-03-19T02:26:37;10.60;99.90
5775;DHT22;2913;51.120;6.772;2023-03-19T02:29:03;10.60;99.90
5775;DHT22;2913;51.120;6.772;2023-03-19T02:31:32;10.60;99.90
5775;DHT22;2913;51.120;6.772;2023-03-19T02:34:04;10.60;99.90
5775;DHT22;2913;51.120;6.772;2023-03-19T02:36:53;10.70;99.90
5775;DHT22;2913;51.120;6.772;2023-03-19T02:39:30;10.70;99.90
5775;DHT22;2913;51.120;6.772;2023-03-19T02:41:59;10.70;99.90
5775;DHT22;2913;51.120;6.772;2023-03-19T02:44:30;10.80;99.90
5775;DHT22;2913;51.120;6.772;2023-03-19T02:46:58;10.90;99.90
5775;DHT22;2913;51.120;6.772;2023-03-19T02:49:24;10.90;99.90
5775;DHT22;2913;51.120;6.772;2023-03-19T02:51:50;10.80;99.90
5775;DHT22;2913;51.120;6.772;2023-03-19T02:54:16;10.80;99.90
5775;DHT22;2913;51.120;6.772;2023-03-19T02:56:41;10.90;99.90
5775;DHT22;2913;51.120;6.772;2023-03-19T02:59:07;10.80;99.90
5775;DHT22;2913;51.120;6.772;2023-03-19T03:01:37;10.80;99.90
5775;DHT22;2913;51.120;6.772;2023-03-19T03:04:03;10.90;99.90
5775;DHT22;2913;51.120;6.772;2023-03-19T03:06:31;10.90;99.90
5775;DHT22;2913;51.120;6.772;2023-03-19T03:08:57;10.90;99.90
5775;DHT22;2913;51.120;6.772;2023-03-19T03:11:22;10.90;99.90
5775;DHT22;2913;51.120;6.772;2023-03-19T03:13:48;10.90;99.90
5775;DHT22;2913;51.120;6.772;2023-03-19T03:16:14;10.90;99.90
5775;DHT22;2913;51.120;6.772;2023-03-19T03:18:40;10.90;99.90
5775;DHT22;2913;51.120;6.772;2023-03-19T03:21:08;10.90;99.90
5775;DHT22;2913;51.120;6.772;2023-03-19T03:23:34;11.00;99.90
5775;DHT22;2913;51.120;6.772;2023-03-19T03:26:01;11.00;99.90
5775;DHT22;2913;51.120;6.772;2023-03-19T03:28:31;11.00;99.90
5775;DHT22;2913;51.120;6.772;2023-03-19T03:31:02;11.00;99.90
5775;DHT22;2913;51.120;6.772;2023-03-19T03:33:28;11.00;99.90
5775;DHT22;2913;51.120;6.772;2023-03-19T03:35:54;11.00;99.90
5775;DHT22;2913;51.120;6.772;2023-03-19T03:38:20;11.00;99.90
5775;DHT22;2913;51.120;6.772;2023-03-19T03:40:50;11.00;99.90
5775;DHT22;2913;51.120;6.772;2023-03-19T03:43:17;11.00;99.90
5775;DHT22;2913;51.120;6.772;2023-03-19T03:45:45;11.00;99.90
5775;DHT22;2913;51.120;6.772;2023-03-19T03:48:14;11.00;99.90
5775;DHT22;2913;51.120;6.772;2023-03-19T03:50:40;11.10;99.90
5775;DHT22;2913;51.120;6.772;2023-03-19T03:53:06;11.00;99.90
5775;DHT22;2913;51.120;6.772;2023-03-19T03:55:33;11.00;99.90
5775;DHT22;2913;51.120;6.772;2023-03-19T03:57:58;11.00;99.90
5775;DHT22;2913;51.120;6.772;2023-03-19T04:00:24;11.00;99.90
5775;DHT22;2913;51.120;6.772;2023-03-19T04:02:51;11.00;99.90
5775;DHT22;2913;51.120;6.772;2023-03-19T04:05:16;11.00;99.90
5775;DHT22;2913;51.120;6.772;2023-03-19T04:07:45;11.10;99.90
5775;DHT22;2913;51.120;6.772;2023-03-19T04:10:11;11.10;99.90
5775;DHT22;2913;51.120;6.772;2023-03-19T04:12:37;11.10;99.90
5775;DHT22;2913;51.120;6.772;2023-03-19T04:15:06;11.10;99.90
5775;DHT22;2913;51.120;6.772;2023-03-19T04:17:32;11.10;99.90
5775;DHT22;2913;51.120;6.772;2023-03-19T04:19:58;11.10;99.90
5775;DHT22;2913;51.120;6.772;2023-03-19T04:22:23;11.20;99.90
5775;DHT22;2913;51.120;6.772;2023-03-19T04:24:53;11.20;99.90
5775;DHT22;2913;51.120;6.772;2023-03-19T04:27:19;11.30;99.90
5775;DHT22;2913;51.120;6.772;2023-03-19T04:29:47;11.20;99.90
5775;DHT22;2913;51.120;6.772;2023-03-19T04:32:12;11.20;99.90
5775;DHT22;2913;51.120;6.772;2023-03-19T04:34:38;11.10;99.90
5775;DHT22;2913;51.120;6.772;2023-03-19T04:37:07;11.10;99.90
5775;DHT22;2913;51.120;6.772;2023-03-19T04:39:35;11.10;99.90
5775;DHT22;2913;51.120;6.772;2023-03-19T04:42:00;11.20;99.90
5775;DHT22;2913;51.120;6.772;2023-03-19T04:44:26;11.20;99.90
5775;DHT22;2913;51.120;6.772;2023-03-19T04:46:52;11.20;99.90
5775;DHT22;2913;51.120;6.772;2023-03-19T04:49:17;11.20;99.90
5775;DHT22;2913;51.120;6.772;2023-03-19T04:51:43;11.20;99.90
5775;DHT22;2913;51.120;6.772;2023-03-19T04:54:09;11.20;99.90
5775;DHT22;2913;51.120;6.772;2023-03-19T04:56:35;11.20;99.90
5775;DHT22;2913;51.120;6.772;2023-03-19T04:59:03;11.20;99.90
5775;DHT22;2913;51.120;6.772;2023-03-19T05:01:29;11.20;99.90
5775;DHT22;2913;51.120;6.772;2023-03-19T05:03:55;11.30;99.90
5775;DHT22;2913;51.120;6.772;2023-03-19T05:06:21;11.20;99.90
5775;DHT22;2913;51.120;6.772;2023-03-19T05:08:51;11.20;99.90
5775;DHT22;2913;51.120;6.772;2023-03-19T05:11:19;11.20;99.90
5775;DHT22;2913;51.120;6.772;2023-03-19T05:13:48;11.20;99.90
5775;DHT22;2913;51.120;6.772;2023-03-19T05:16:14;11.20;99.90
5775;DHT22;2913;51.120;6.772;2023-03-19T05:18:41;11.20;99.90
5775;DHT22;2913;51.120;6.772;2023-03-19T05:21:10;11.20;99.90
5775;DHT22;2913;51.120;6.772;2023-03-19T05:23:39;11.20;99.90
5775;DHT22;2913;51.120;6.772;2023-03-19T05:26:05;11.20;99.90
5775;DHT22;2913;51.120;6.772;2023-03-19T05:28:31;11.20;99.90
5775;DHT22;2913;51.120;6.772;2023-03-19T05:31:00;11.20;99.90
5775;DHT22;2913;51.120;6.772;2023-03-19T05:33:25;11.30;99.90
5775;DHT22;2913;51.120;6.772;2023-03-19T05:35:55;11.30;99.90
5775;DHT22;2913;51.120;6.772;2023-03-19T05:38:23;11.20;99.90
5775;DHT22;2913;51.120;6.772;2023-03-19T05:40:48;11.30;99.90
5775;DHT22;2913;51.120;6.772;2023-03-19T05:43:14;11.30;99.90
5775;DHT22;2913;51.120;6.772;2023-03-19T05:45:40;11.30;99.90
5775;DHT22;2913;51.120;6.772;2023-03-19T05:48:07;11.30;99.90
5775;DHT22;2913;51.120;6.772;2023-03-19T05:50:33;11.30;99.90
5775;DHT22;2913;51.120;6.772;2023-03-19T05:53:01;11.30;99.90
5775;DHT22;2913;51.120;6.772;2023-03-19T05:55:27;11.30;99.90
5775;DHT22;2913;51.120;6.772;2023-03-19T05:57:53;11.40;99.90
5775;DHT22;2913;51.120;6.772;2023-03-19T06:00:21;11.40;99.90
5775;DHT22;2913;51.120;6.772;2023-03-19T06:02:49;11.30;99.90
5775;DHT22;2913;51.120;6.772;2023-03-19T06:05:16;11.30;99.90
5775;DHT22;2913;51.120;6.772;2023-03-19T06:07:44;11.40;99.90
5775;DHT22;2913;51.120;6.772;2023-03-19T06:10:10;11.40;99.90
5775;DHT22;2913;51.120;6.772;2023-03-19T06:12:38;11.40;99.90
5775;DHT22;2913;51.120;6.772;2023-03-19T06:15:04;11.40;99.90
5775;DHT22;2913;51.120;6.772;2023-03-19T06:17:31;11.50;99.90
5775;DHT22;2913;51.120;6.772;2023-03-19T06:19:56;11.40;99.90
5775;DHT22;2913;51.120;6.772;2023-03-19T06:22:24;11.50;99.90
5775;DHT22;2913;51.120;6.772;2023-03-19T06:24:52;11.50;99.90
5775;DHT22;2913;51.120;6.772;2023-03-19T06:27:18;11.50;99.90
5775;DHT22;2913;51.120;6.772;2023-03-19T06:29:43;11.60;99.90
5775;DHT22;2913;51.120;6.772;2023-03-19T06:32:11;11.60;99.90
5775;DHT22;2913;51.120;6.772;2023-03-19T06:34:37;11.70;99.90
5775;DHT22;2913;51.120;6.772;2023-03-19T06:37:03;11.70;99.90
5775;DHT22;2913;51.120;6.772;2023-03-19T06:39:29;11.70;99.90
5775;DHT22;2913;51.120;6.772;2023-03-19T06:41:57;11.70;99.90
5775;DHT22;2913;51.120;6.772;2023-03-19T06:44:22;11.70;99.90
5775;DHT22;2913;51.120;6.772;2023-03-19T06:46:49;11.60;99.90
5775;DHT22;2913;51.120;6.772;2023-03-19T06:49:15;11.50;99.90
5775;DHT22;2913;51.120;6.772;2023-03-19T06:51:41;11.50;99.90
5775;DHT22;2913;51.120;6.772;2023-03-19T06:54:07;11.50;99.90
5775;DHT22;2913;51.120;6.772;2023-03-19T06:56:32;11.50;99.90
5775;DHT22;2913;51.120;6.772;2023-03-19T06:58:58;11.60;99.90
5775;DHT22;2913;51.120;6.772;2023-03-19T07:01:24;11.60;99.90
5775;DHT22;2913;51.120;6.772;2023-03-19T07:03:51;11.70;99.90
5775;DHT22;2913;51.120;6.772;2023-03-19T07:06:17;11.70;99.90
5775;DHT22;2913;51.120;6.772;2023-03-19T07:08:43;11.70;99.90
5775;DHT22;2913;51.120;6.772;2023-03-19T07:11:11;11.90;99.90
5775;DHT22;2913;51.120;6.772;2023-03-19T07:13:42;11.90;99.90
5775;DHT22;2913;51.120;6.772;2023-03-19T07:16:07;11.90;99.90
5775;DHT22;2913;51.120;6.772;2023-03-19T07:18:35;11.90;99.90
5775;DHT22;2913;51.120;6.772;2023-03-19T07:21:02;12.00;99.90
5775;DHT22;2913;51.120;6.772;2023-03-19T07:23:27;12.00;99.90
5775;DHT22;2913;51.120;6.772;2023-03-19T07:25:55;12.00;99.90
5775;DHT22;2913;51.120;6.772;2023-03-19T07:28:23;12.00;99.90
5775;DHT22;2913;51.120;6.772;2023-03-19T07:30:52;12.10;99.90
5775;DHT22;2913;51.120;6.772;2023-03-19T07:33:18;12.10;99.90
5775;DHT22;2913;51.120;6.772;2023-03-19T07:35:46;12.20;99.90
5775;DHT22;2913;51.120;6.772;2023-03-19T07:38:14;12.20;99.90
5775;DHT22;2913;51.120;6.772;2023-03-19T07:40:42;12.20;99.90
5775;DHT22;2913;51.120;6.772;2023-03-19T07:43:08;12.20;99.90
5775;DHT22;2913;51.120;6.772;2023-03-19T07:45:34;12.20;99.90
5775;DHT22;2913;51.120;6.772;2023-03-19T07:48:02;12.20;99.90
5775;DHT22;2913;51.120;6.772;2023-03-19T07:50:30;12.30;99.90
5775;DHT22;2913;51.120;6.772;2023-03-19T07:52:56;12.30;99.90
5775;DHT22;2913;51.120;6.772;2023-03-19T07:55:24;12.40;99.90
5775;DHT22;2913;51.120;6.772;2023-03-19T07:57:52;12.40;99.90
5775;DHT22;2913;51.120;6.772;2023-03-19T08:00:20;12.50;99.90
5775;DHT22;2913;51.120;6.772;2023-03-19T08:02:46;12.50;99.90
5775;DHT22;2913;51.120;6.772;2023-03-19T08:05:12;12.50;99.90
5775;DHT22;2913;51.120;6.772;2023-03-19T08:07:38;12.50;99.90
5775;DHT22;2913;51.120;6.772;2023-03-19T08:10:04;12.70;99.90
5775;DHT22;2913;51.120;6.772;2023-03-19T08:12:33;12.80;99.90
5775;DHT22;2913;51.120;6.772;2023-03-19T08:15:04;12.90;99.90
5775;DHT22;2913;51.120;6.772;2023-03-19T08:17:30;13.00;99.90
5775;DHT22;2913;51.120;6.772;2023-03-19T08:20:06;13.00;99.90
5775;DHT22;2913;51.120;6.772;2023-03-19T08:22:33;13.10;99.90
5775;DHT22;2913;51.120;6.772;2023-03-19T08:24:59;13.30;99.90
5775;DHT22;2913;51.120;6.772;2023-03-19T08:27:24;13.40;99.90
5775;DHT22;2913;51.120;6.772;2023-03-19T08:29:52;13.60;99.90
5775;DHT22;2913;51.120;6.772;2023-03-19T08:32:18;13.70;99.90
5775;DHT22;2913;51.120;6.772;2023-03-19T08:34:43;13.90;99.90
5775;DHT22;2913;51.120;6.772;2023-03-19T08:37:11;14.00;99.90
5775;DHT22;2913;51.120;6.772;2023-03-19T08:39:37;14.10;99.90
5775;DHT22;2913;51.120;6.772;2023-03-19T08:42:05;14.20;99.90
5775;DHT22;2913;51.120;6.772;2023-03-19T08:44:31;14.40;99.90
5775;DHT22;2913;51.120;6.772;2023-03-19T08:46:56;14.50;99.90
5775;DHT22;2913;51.120;6.772;2023-03-19T08:49:24;14.50;99.90
5775;DHT22;2913;51.120;6.772;2023-03-19T08:51:52;14.50;99.90
5775;DHT22;2913;51.120;6.772;2023-03-19T08:54:17;14.50;99.90
5775;DHT22;2913;51.120;6.772;2023-03-19T08:56:43;14.60;99.90
5775;DHT22;2913;51.120;6.772;2023-03-19T08:59:09;14.70;99.90
5775;DHT22;2913;51.120;6.772;2023-03-19T09:01:34;14.70;99.90
5775;DHT22;2913;51.120;6.772;2023-03-19T09:04:02;14.60;99.90
5775;DHT22;2913;51.120;6.772;2023-03-19T09:06:29;14.50;99.90
5775;DHT22;2913;51.120;6.772;2023-03-19T09:08:57;14.40;99.90
5775;DHT22;2913;51.120;6.772;2023-03-19T09:11:23;14.60;99.90
5775;DHT22;2913;51.120;6.772;2023-03-19T09:13:51;14.40;99.90
5775;DHT22;2913;51.120;6.772;2023-03-19T09:16:16;14.60;99.90
5775;DHT22;2913;51.120;6.772;2023-03-19T09:18:43;14.80;99.90
5775;DHT22;2913;51.120;6.772;2023-03-19T09:21:08;15.00;99.90
5775;DHT22;2913;51.120;6.772;2023-03-19T09:23:34;15.10;99.90
5775;DHT22;2913;51.120;6.772;2023-03-19T09:25:59;15.20;99.90
5775;DHT22;2913;51.120;6.772;2023-03-19T09:28:27;15.10;99.90
5775;DHT22;2913;51.120;6.772;2023-03-19T09:30:55;15.20;99.90
5775;DHT22;2913;51.120;6.772;2023-03-19T09:33:21;15.30;99.90
5775;DHT22;2913;51.120;6.772;2023-03-19T09:35:51;15.30;99.90
5775;DHT22;2913;51.120;6.772;2023-03-19T09:38:20;15.40;99.90
5775;DHT22;2913;51.120;6.772;2023-03-19T09:40:48;15.50;99.90
5775;DHT22;2913;51.120;6.772;2023-03-19T09:46:17;15.70;99.90
5775;DHT22;2913;51.120;6.772;2023-03-19T09:48:56;15.90;99.90
5775;DHT22;2913;51.120;6.772;2023-03-19T09:51:46;15.90;99.90
5775;DHT22;2913;51.120;6.772;2023-03-19T09:56:55;15.90;99.90
5775;DHT22;2913;51.120;6.772;2023-03-19T09:59:22;15.90;99.90
5775;DHT22;2913;51.120;6.772;2023-03-19T10:01:54;15.90;99.90
5775;DHT22;2913;51.120;6.772;2023-03-19T10:07:05;15.80;99.90
5775;DHT22;2913;51.120;6.772;2023-03-19T10:10:24;15.90;99.90
5775;DHT22;2913;51.120;6.772;2023-03-19T10:12:47;15.90;99.90
5775;DHT22;2913;51.120;6.772;2023-03-19T10:17:57;16.00;99.90
5775;DHT22;2913;51.120;6.772;2023-03-19T10:25:54;15.90;99.90
5775;DHT22;2913;51.120;6.772;2023-03-19T10:28:21;15.90;99.90
5775;DHT22;2913;51.120;6.772;2023-03-19T10:31:01;15.90;99.90
5775;DHT22;2913;51.120;6.772;2023-03-19T10:33:43;15.90;99.90
5775;DHT22;2913;51.120;6.772;2023-03-19T10:36:11;15.80;99.90
5775;DHT22;2913;51.120;6.772;2023-03-19T10:38:41;15.80;99.90
5775;DHT22;2913;51.120;6.772;2023-03-19T10:43:59;15.70;99.90
5775;DHT22;2913;51.120;6.772;2023-03-19T10:46:37;15.70;99.90
5775;DHT22;2913;51.120;6.772;2023-03-19T10:49:03;15.80;99.90
5775;DHT22;2913;51.120;6.772;2023-03-19T10:51:33;15.80;99.90
5775;DHT22;2913;51.120;6.772;2023-03-19T10:54:01;15.50;99.90
5775;DHT22;2913;51.120;6.772;2023-03-19T10:56:28;15.60;99.90
5775;DHT22;2913;51.120;6.772;2023-03-19T10:59:01;15.60;99.90
5775;DHT22;2913;51.120;6.772;2023-03-19T11:01:32;15.40;99.90
5775;DHT22;2913;51.120;6.772;2023-03-19T11:04:00;15.30;99.90
5775;DHT22;2913;51.120;6.772;2023-03-19T11:06:33;15.30;99.90
5775;DHT22;2913;51.120;6.772;2023-03-19T11:11:46;15.30;99.90
5775;DHT22;2913;51.120;6.772;2023-03-19T11:14:26;15.30;99.90
5775;DHT22;2913;51.120;6.772;2023-03-19T11:16:57;15.40;99.90
5775;DHT22;2913;51.120;6.772;2023-03-19T11:19:29;15.20;99.90
5775;DHT22;2913;51.120;6.772;2023-03-19T11:24:43;15.30;99.90
5775;DHT22;2913;51.120;6.772;2023-03-19T11:27:12;15.40;99.90
5775;DHT22;2913;51.120;6.772;2023-03-19T11:29:44;15.50;99.90
5775;DHT22;2913;51.120;6.772;2023-03-19T11:35:45;15.60;99.90
5775;DHT22;2913;51.120;6.772;2023-03-19T11:37:58;15.70;99.90
5775;DHT22;2913;51.120;6.772;2023-03-19T11:43:36;15.70;99.90
5775;DHT22;2913;51.120;6.772;2023-03-19T11:49:29;15.70;99.90
5775;DHT22;2913;51.120;6.772;2023-03-19T11:52:25;15.70;99.90
5775;DHT22;2913;51.120;6.772;2023-03-19T12:05:58;15.60;99.90
5775;DHT22;2913;51.120;6.772;2023-03-19T12:08:42;15.50;99.90
5775;DHT22;2913;51.120;6.772;2023-03-19T12:11:39;15.60;99.90
5775;DHT22;2913;51.120;6.772;2023-03-19T12:19:45;15.70;99.90
5775;DHT22;2913;51.120;6.772;2023-03-19T12:30:38;15.50;99.90
5775;DHT22;2913;51.120;6.772;2023-03-19T12:35:54;15.40;99.90
5775;DHT22;2913;51.120;6.772;2023-03-19T12:41:05;15.10;99.90
5775;DHT22;2913;51.120;6.772;2023-03-19T12:46:42;15.00;99.90
5775;DHT22;2913;51.120;6.772;2023-03-19T12:49:18;14.90;99.90
5775;DHT22;2913;51.120;6.772;2023-03-19T12:51:58;14.90;99.90
5775;DHT22;2913;51.120;6.772;2023-03-19T12:54:28;14.80;99.90
5775;DHT22;2913;51.120;6.772;2023-03-19T12:57:05;14.80;99.90
5775;DHT22;2913;51.120;6.772;2023-03-19T13:00:00;14.50;99.90
5775;DHT22;2913;51.120;6.772;2023-03-19T13:05:38;14.10;99.90
5775;DHT22;2913;51.120;6.772;2023-03-19T13:08:26;14.10;99.90
5775;DHT22;2913;51.120;6.772;2023-03-19T13:10:52;14.20;99.90
5775;DHT22;2913;51.120;6.772;2023-03-19T13:18:53;14.30;99.90
5775;DHT22;2913;51.120;6.772;2023-03-19T13:26:50;14.40;99.90
5775;DHT22;2913;51.120;6.772;2023-03-19T13:31:48;14.40;99.90
5775;DHT22;2913;51.120;6.772;2023-03-19T13:34:18;14.60;99.90
5775;DHT22;2913;51.120;6.772;2023-03-19T13:37:18;14.60;99.90
5775;DHT22;2913;51.120;6.772;2023-03-19T13:39:46;14.50;99.90
5775;DHT22;2913;51.120;6.772;2023-03-19T13:45:00;14.70;99.90
5775;DHT22;2913;51.120;6.772;2023-03-19T13:52:50;14.90;99.90
5775;DHT22;2913;51.120;6.772;2023-03-19T13:58:22;15.00;99.90
5775;DHT22;2913;51.120;6.772;2023-03-19T14:03:57;14.80;99.90
5775;DHT22;2913;51.120;6.772;2023-03-19T14:06:37;14.70;99.90
5775;DHT22;2913;51.120;6.772;2023-03-19T14:09:36;14.80;99.90
5775;DHT22;2913;51.120;6.772;2023-03-19T14:12:21;14.80;99.90
5775;DHT22;2913;51.120;6.772;2023-03-19T14:14:54;14.80;99.90
5775;DHT22;2913;51.120;6.772;2023-03-19T14:17:37;14.70;99.90
5775;DHT22;2913;51.120;6.772;2023-03-19T14:22:40;14.80;99.90
5775;DHT22;2913;51.120;6.772;2023-03-19T14:25:19;14.80;99.90
5775;DHT22;2913;51.120;6.772;2023-03-19T14:27:50;14.80;99.90
5775;DHT22;2913;51.120;6.772;2023-03-19T14:30:39;14.80;99.90
5775;DHT22;2913;51.120;6.772;2023-03-19T14:33:21;14.90;99.90
5775;DHT22;2913;51.120;6.772;2023-03-19T14:35:50;14.80;99.90
5775;DHT22;2913;51.120;6.772;2023-03-19T14:38:35;14.80;99.90
5775;DHT22;2913;51.120;6.772;2023-03-19T14:41:06;14.90;99.90
5775;DHT22;2913;51.120;6.772;2023-03-19T14:49:44;14.90;99.90
5775;DHT22;2913;51.120;6.772;2023-03-19T14:55:00;14.90;99.90
5775;DHT22;2913;51.120;6.772;2023-03-19T14:57:33;14.80;99.90
5775;DHT22;2913;51.120;6.772;2023-03-19T14:59:59;14.60;99.90
5775;DHT22;2913;51.120;6.772;2023-03-19T15:07:36;14.50;99.90
5775;DHT22;2913;51.120;6.772;2023-03-19T15:10:06;14.50;99.90
5775;DHT22;2913;51.120;6.772;2023-03-19T15:18:16;14.30;99.90
5775;DHT22;2913;51.120;6.772;2023-03-19T15:20:47;14.20;99.90
5775;DHT22;2913;51.120;6.772;2023-03-19T15:23:17;14.20;99.90
5775;DHT22;2913;51.120;6.772;2023-03-19T15:25:55;14.30;99.90
5775;DHT22;2913;51.120;6.772;2023-03-19T15:28:23;14.30;99.90
5775;DHT22;2913;51.120;6.772;2023-03-19T15:31:00;14.20;99.90
5775;DHT22;2913;51.120;6.772;2023-03-19T15:33:34;14.20;99.90
5775;DHT22;2913;51.120;6.772;2023-03-19T15:39:03;14.30;99.90
5775;DHT22;2913;51.120;6.772;2023-03-19T15:41:32;14.20;99.90
5775;DHT22;2913;51.120;6.772;2023-03-19T15:44:00;14.40;99.90
5775;DHT22;2913;51.120;6.772;2023-03-19T15:46:33;14.30;99.90
5775;DHT22;2913;51.120;6.772;2023-03-19T15:49:07;14.20;99.90
5775;DHT22;2913;51.120;6.772;2023-03-19T15:51:34;14.00;99.90
5775;DHT22;2913;51.120;6.772;2023-03-19T15:54:01;14.00;99.90
5775;DHT22;2913;51.120;6.772;2023-03-19T15:56:29;13.90;99.90
5775;DHT22;2913;51.120;6.772;2023-03-19T15:58:57;14.00;99.90
5775;DHT22;2913;51.120;6.772;2023-03-19T16:01:25;14.00;99.90
5775;DHT22;2913;51.120;6.772;2023-03-19T16:04:00;13.90;99.90
5775;DHT22;2913;51.120;6.772;2023-03-19T16:06:31;14.00;99.90
5775;DHT22;2913;51.120;6.772;2023-03-19T16:11:40;14.00;99.90
5775;DHT22;2913;51.120;6.772;2023-03-19T16:17:10;14.10;99.90
5775;DHT22;2913;51.120;6.772;2023-03-19T16:19:46;14.10;99.90
5775;DHT22;2913;51.120;6.772;2023-03-19T16:22:19;14.10;99.90
5775;DHT22;2913;51.120;6.772;2023-03-19T16:24:51;14.10;99.90
5775;DHT22;2913;51.120;6.772;2023-03-19T16:27:39;14.10;99.90
5775;DHT22;2913;51.120;6.772;2023-03-19T16:30:21;14.10;99.90
5775;DHT22;2913;51.120;6.772;2023-03-19T16:33:03;14.20;99.90
5775;DHT22;2913;51.120;6.772;2023-03-19T16:35:33;14.20;99.90
5775;DHT22;2913;51.120;6.772;2023-03-19T16:38:24;14.00;99.90
5775;DHT22;2913;51.120;6.772;2023-03-19T16:41:28;14.10;99.90
5775;DHT22;2913;51.120;6.772;2023-03-19T16:44:09;14.10;99.90
5775;DHT22;2913;51.120;6.772;2023-03-19T16:46:36;14.00;99.90
5775;DHT22;2913;51.120;6.772;2023-03-19T16:49:02;14.00;99.90
5775;DHT22;2913;51.120;6.772;2023-03-19T16:51:27;13.80;99.90
5775;DHT22;2913;51.120;6.772;2023-03-19T16:53:53;13.70;99.90
5775;DHT22;2913;51.120;6.772;2023-03-19T16:56:19;13.60;99.90
5775;DHT22;2913;51.120;6.772;2023-03-19T16:58:44;13.60;99.90
5775;DHT22;2913;51.120;6.772;2023-03-19T17:01:15;13.50;99.90
5775;DHT22;2913;51.120;6.772;2023-03-19T17:03:44;13.60;99.90
5775;DHT22;2913;51.120;6.772;2023-03-19T17:06:13;13.60;99.90
5775;DHT22;2913;51.120;6.772;2023-03-19T17:08:42;13.60;99.90
5775;DHT22;2913;51.120;6.772;2023-03-19T17:11:22;13.60;99.90
5775;DHT22;2913;51.120;6.772;2023-03-19T17:13:52;13.50;99.90
5775;DHT22;2913;51.120;6.772;2023-03-19T17:16:18;13.40;99.90
5775;DHT22;2913;51.120;6.772;2023-03-19T17:18:44;13.50;99.90
5775;DHT22;2913;51.120;6.772;2023-03-19T17:21:19;13.50;99.90
5775;DHT22;2913;51.120;6.772;2023-03-19T17:23:46;13.50;99.90
5775;DHT22;2913;51.120;6.772;2023-03-19T17:26:15;13.50;99.90
5775;DHT22;2913;51.120;6.772;2023-03-19T17:28:41;13.50;99.90
5775;DHT22;2913;51.120;6.772;2023-03-19T17:31:19;13.50;99.90
5775;DHT22;2913;51.120;6.772;2023-03-19T17:33:45;13.50;99.90
5775;DHT22;2913;51.120;6.772;2023-03-19T17:36:11;13.40;99.90
5775;DHT22;2913;51.120;6.772;2023-03-19T17:38:39;13.40;99.90
5775;DHT22;2913;51.120;6.772;2023-03-19T17:41:13;13.40;99.90
5775;DHT22;2913;51.120;6.772;2023-03-19T17:43:39;13.40;99.90
5775;DHT22;2913;51.120;6.772;2023-03-19T17:46:04;13.40;99.90
5775;DHT22;2913;51.120;6.772;2023-03-19T17:48:30;13.30;99.90
5775;DHT22;2913;51.120;6.772;2023-03-19T17:51:01;13.30;99.90
5775;DHT22;2913;51.120;6.772;2023-03-19T17:53:27;13.20;99.90
5775;DHT22;2913;51.120;6.772;2023-03-19T17:55:53;13.20;99.90
5775;DHT22;2913;51.120;6.772;2023-03-19T17:58:21;13.10;99.90
5775;DHT22;2913;51.120;6.772;2023-03-19T18:00:52;13.10;99.90
5775;DHT22;2913;51.120;6.772;2023-03-19T18:03:24;13.00;99.90
5775;DHT22;2913;51.120;6.772;2023-03-19T18:05:55;13.00;99.90
5775;DHT22;2913;51.120;6.772;2023-03-19T18:08:21;13.00;99.90
5775;DHT22;2913;51.120;6.772;2023-03-19T18:10:49;13.00;99.90
5775;DHT22;2913;51.120;6.772;2023-03-19T18:13:14;13.00;99.90
5775;DHT22;2913;51.120;6.772;2023-03-19T18:15:43;12.90;99.90
5775;DHT22;2913;51.120;6.772;2023-03-19T18:18:20;13.00;99.90
5775;DHT22;2913;51.120;6.772;2023-03-19T18:20:48;12.90;99.90
5775;DHT22;2913;51.120;6.772;2023-03-19T18:23:15;12.80;99.90
5775;DHT22;2913;51.120;6.772;2023-03-19T18:25:44;12.80;99.90
5775;DHT22;2913;51.120;6.772;2023-03-19T18:28:10;12.80;99.90